createdAt,value
2017-07-10T11:29:59.373Z,18.10
2017-07-10T11:32:26.913Z,34.60
2017-07-10T11:34:54.514Z,35.00
2017-07-10T11:37:22.058Z,34.60
2017-07-10T11:39:49.615Z,33.70
2017-07-10T11:42:17.147Z,32.20
2017-07-10T11:44:44.671Z,31.40
2017-07-10T11:47:12.295Z,30.90
2017-07-10T11:49:39.867Z,30.30
2017-07-10T11:52:07.419Z,29.50
2017-07-10T11:54:34.974Z,29.30
2017-07-10T11:57:03.206Z,29.40
2017-07-10T11:59:31.527Z,30.50
2017-07-10T12:01:59.090Z,30.50
2017-07-10T12:04:26.649Z,30.80
2017-07-10T12:06:54.174Z,32.00
2017-07-10T12:09:21.719Z,33.60
2017-07-10T12:11:50.043Z,36.90
2017-07-10T12:14:17.570Z,36.80
2017-07-10T12:16:45.983Z,37.50
2017-07-10T12:19:13.515Z,37.50
2017-07-10T12:21:41.099Z,37.70
2017-07-10T12:24:08.642Z,38.60
2017-07-10T12:26:36.163Z,39.30
2017-07-10T12:29:03.794Z,39.00
2017-07-10T12:31:31.415Z,40.20
2017-07-10T12:33:59.011Z,41.20
2017-07-10T12:36:26.563Z,41.60
2017-07-10T12:38:54.107Z,43.60
2017-07-10T12:41:21.683Z,44.90
2017-07-10T12:43:49.262Z,43.80
2017-07-10T12:46:16.802Z,42.70
2017-07-10T12:48:44.362Z,43.60
2017-07-10T12:51:12.022Z,41.40
2017-07-10T12:53:39.582Z,40.40
2017-07-10T12:56:07.969Z,41.90
2017-07-10T12:58:35.502Z,43.30
2017-07-10T13:01:03.050Z,45.00
2017-07-10T13:03:30.582Z,45.70
2017-07-10T13:05:58.110Z,44.20
2017-07-10T13:08:25.661Z,42.80
2017-07-10T13:10:53.421Z,40.80
2017-07-10T13:13:20.946Z,39.60
2017-07-10T13:15:48.545Z,38.90
2017-07-10T13:18:16.106Z,37.90
2017-07-10T13:20:43.977Z,37.60
2017-07-10T13:23:11.524Z,36.90
2017-07-10T13:25:39.046Z,37.10
2017-07-10T13:28:07.334Z,39.50
2017-07-10T13:30:34.873Z,39.40
2017-07-10T13:33:03.201Z,41.80
2017-07-10T13:35:30.775Z,41.70
2017-07-10T13:37:58.411Z,41.60
2017-07-10T13:40:25.931Z,41.00
2017-07-10T13:42:54.314Z,42.30
2017-07-10T13:45:21.931Z,42.20
2017-07-10T13:47:49.479Z,42.20
2017-07-10T13:50:17.051Z,42.70
2017-07-10T13:52:44.595Z,43.50
2017-07-10T13:55:12.119Z,43.40
2017-07-10T13:57:40.536Z,43.90
2017-07-10T14:00:08.082Z,43.90
2017-07-10T14:02:35.617Z,43.30
2017-07-10T14:05:03.157Z,42.50
2017-07-10T14:07:30.782Z,40.30
2017-07-10T14:09:58.310Z,38.70
2017-07-10T14:12:26.001Z,40.50
2017-07-10T14:14:53.660Z,41.90
2017-07-10T14:17:21.228Z,42.30
2017-07-10T14:19:48.754Z,41.60
2017-07-10T14:22:16.293Z,42.30
2017-07-10T14:24:44.589Z,42.10
2017-07-10T14:27:12.179Z,42.00
2017-07-10T14:29:39.736Z,40.80
2017-07-10T14:32:07.261Z,40.20
2017-07-10T14:34:37.106Z,41.10
2017-07-10T14:37:04.667Z,41.10
2017-07-10T14:39:32.197Z,40.40
2017-07-10T14:41:59.887Z,40.80
2017-07-10T14:44:27.550Z,40.60
2017-07-10T14:46:55.110Z,40.60
2017-07-10T14:49:22.630Z,39.80
2017-07-10T14:51:51.048Z,39.00
2017-07-10T14:54:18.609Z,39.00
2017-07-10T14:56:46.176Z,39.40
2017-07-10T14:59:13.737Z,39.60
2017-07-10T15:01:41.323Z,39.50
2017-07-10T15:04:08.949Z,39.30
2017-07-10T15:06:36.493Z,38.40
2017-07-10T15:09:04.031Z,36.80
2017-07-10T15:11:32.355Z,33.90
2017-07-10T15:13:59.915Z,33.90
2017-07-10T15:16:27.440Z,34.20
2017-07-10T15:18:54.966Z,34.50
2017-07-10T15:21:22.514Z,34.70
2017-07-10T15:23:50.052Z,33.80
2017-07-10T15:26:17.705Z,32.80
2017-07-10T15:28:45.269Z,33.80
2017-07-10T15:31:12.843Z,35.30
2017-07-10T15:33:40.394Z,35.10
2017-07-10T15:36:07.954Z,33.10
2017-07-10T15:38:35.522Z,32.10
2017-07-10T15:41:03.099Z,30.90
2017-07-10T15:43:30.730Z,30.40
2017-07-10T15:45:58.254Z,31.30
2017-07-10T15:48:25.858Z,33.00
2017-07-10T15:50:54.183Z,33.90
2017-07-10T15:53:22.497Z,36.40
2017-07-10T15:55:50.158Z,36.40
2017-07-10T15:58:21.648Z,36.60
2017-07-10T16:00:50.090Z,36.60
2017-07-10T16:03:17.663Z,36.50
2017-07-10T16:05:45.978Z,37.30
2017-07-10T16:08:14.310Z,37.40
2017-07-10T16:10:42.696Z,37.40
2017-07-10T16:13:10.362Z,37.00
2017-07-10T16:15:37.921Z,37.00
2017-07-10T16:18:05.501Z,36.60
2017-07-10T16:20:34.081Z,36.80
2017-07-10T16:23:01.625Z,35.20
2017-07-10T16:25:29.155Z,34.90
2017-07-10T16:27:56.708Z,34.20
2017-07-10T16:30:24.309Z,33.80
2017-07-10T16:32:55.688Z,33.40
2017-07-10T16:35:24.001Z,31.90
2017-07-10T16:37:51.532Z,31.80
2017-07-10T16:40:19.863Z,30.70
2017-07-10T16:42:47.418Z,30.60
2017-07-10T16:45:15.073Z,30.30
2017-07-10T16:47:42.610Z,29.80
2017-07-10T16:50:10.180Z,29.00
2017-07-10T16:52:37.706Z,28.60
2017-07-10T16:55:06.018Z,27.70
2017-07-10T16:57:34.034Z,27.60
2017-07-10T17:00:01.675Z,27.20
2017-07-10T17:02:29.197Z,27.00
2017-07-10T17:04:56.743Z,26.60
2017-07-10T17:07:24.335Z,26.40
2017-07-10T17:09:51.885Z,26.30
2017-07-10T17:12:19.444Z,26.20
2017-07-10T17:14:47.004Z,26.00
2017-07-10T17:17:14.538Z,26.00
2017-07-10T17:19:42.082Z,26.00
2017-07-10T17:22:09.610Z,25.90
2017-07-10T17:24:37.154Z,25.70
2017-07-10T17:27:04.809Z,24.50
2017-07-10T17:29:32.343Z,22.50
2017-07-10T17:31:59.891Z,21.50
2017-07-10T17:34:28.231Z,20.70
2017-07-10T17:36:55.754Z,20.70
2017-07-10T17:39:23.286Z,20.90
2017-07-10T17:41:51.598Z,20.80
2017-07-10T17:44:19.134Z,20.80
2017-07-10T17:46:46.737Z,20.70
2017-07-10T17:49:14.286Z,20.60
2017-07-10T17:51:41.813Z,20.60
2017-07-10T17:54:09.970Z,20.60
2017-07-10T17:56:38.288Z,20.50
2017-07-10T17:59:10.137Z,20.50
2017-07-10T18:01:37.673Z,20.50
2017-07-10T18:04:07.005Z,20.50
2017-07-10T18:06:34.769Z,20.40
2017-07-10T18:09:02.295Z,20.50
2017-07-10T18:11:30.609Z,20.60
2017-07-10T18:13:58.133Z,20.50
2017-07-10T18:16:26.424Z,20.70
2017-07-10T18:18:53.975Z,20.70
2017-07-10T18:21:21.496Z,20.70
2017-07-10T18:23:49.016Z,20.80
2017-07-10T18:26:16.564Z,20.80
2017-07-10T18:28:44.713Z,20.80
2017-07-10T18:31:13.193Z,20.70
2017-07-10T18:33:41.500Z,20.70
2017-07-10T18:36:09.027Z,20.70
2017-07-10T18:38:37.446Z,20.60
2017-07-10T18:41:05.006Z,20.60
2017-07-10T18:43:32.571Z,20.50
2017-07-10T18:46:00.106Z,20.50
2017-07-10T18:48:27.650Z,20.50
2017-07-10T18:50:55.953Z,20.40
2017-07-10T18:53:23.491Z,20.40
2017-07-10T18:55:51.115Z,20.30
2017-07-10T18:58:18.643Z,20.30
2017-07-10T19:00:46.206Z,20.20
2017-07-10T19:03:13.868Z,20.10
2017-07-10T19:05:41.394Z,20.10
2017-07-10T19:08:08.926Z,20.00
2017-07-10T19:10:37.248Z,19.90
2017-07-10T19:13:04.776Z,19.90
2017-07-10T19:15:33.071Z,19.90
2017-07-10T19:18:00.623Z,19.90
2017-07-10T19:20:28.157Z,19.90
2017-07-10T19:22:56.462Z,19.90
2017-07-10T19:25:24.060Z,19.90
2017-07-10T19:27:51.914Z,19.90
2017-07-10T19:30:19.482Z,19.90
2017-07-10T19:32:47.038Z,19.90
2017-07-10T19:35:14.580Z,19.80
2017-07-10T19:37:42.152Z,19.80
2017-07-10T19:40:09.748Z,19.70
2017-07-10T19:42:37.269Z,19.70
2017-07-10T19:45:04.792Z,19.70
2017-07-10T19:47:33.219Z,19.60
2017-07-10T19:50:00.743Z,19.60
2017-07-10T19:52:28.278Z,19.60
2017-07-10T19:54:56.591Z,19.60
2017-07-10T19:57:24.154Z,19.50
2017-07-10T19:59:51.693Z,19.50
2017-07-10T20:02:19.290Z,19.50
2017-07-10T20:04:46.844Z,19.60
2017-07-10T20:07:14.370Z,19.60
2017-07-10T20:09:42.678Z,19.60
2017-07-10T20:12:10.201Z,19.60
2017-07-10T20:14:38.514Z,19.70
2017-07-10T20:17:06.058Z,19.60
2017-07-10T20:19:33.589Z,19.70
2017-07-10T20:22:01.885Z,19.70
2017-07-10T20:24:29.438Z,19.60
2017-07-10T20:26:56.976Z,19.70
2017-07-10T20:29:25.288Z,19.70
2017-07-10T20:31:52.965Z,19.70
2017-07-10T20:34:20.490Z,19.70
2017-07-10T20:36:48.773Z,19.80
2017-07-10T20:39:16.309Z,19.80
2017-07-10T20:41:43.824Z,19.80
2017-07-10T20:44:11.348Z,19.80
2017-07-10T20:46:38.891Z,19.80
2017-07-10T20:49:06.510Z,19.80
2017-07-10T20:51:34.030Z,19.80
2017-07-10T20:54:01.589Z,19.90
2017-07-10T20:56:29.122Z,19.90
2017-07-10T20:58:56.650Z,19.90
2017-07-10T21:01:24.307Z,20.00
2017-07-10T21:03:51.830Z,20.00
2017-07-10T21:06:19.367Z,20.00
2017-07-10T21:08:47.680Z,19.90
2017-07-10T21:11:15.201Z,19.90
2017-07-10T21:13:43.499Z,19.90
2017-07-10T21:16:11.963Z,19.90
2017-07-10T21:18:40.254Z,19.90
2017-07-10T21:21:07.778Z,19.90
2017-07-10T21:23:35.321Z,19.90
2017-07-10T21:26:02.854Z,19.90
2017-07-10T21:28:30.384Z,20.00
2017-07-10T21:30:58.713Z,20.00
2017-07-10T21:33:26.360Z,20.00
2017-07-10T21:35:53.885Z,20.00
2017-07-10T21:38:21.438Z,20.00
2017-07-10T21:40:49.731Z,20.10
2017-07-10T21:46:10.819Z,20.00
2017-07-10T21:48:38.343Z,20.00
2017-07-10T21:51:06.634Z,20.10
2017-07-10T21:53:34.943Z,20.10
2017-07-10T21:56:02.471Z,20.10
2017-07-10T21:58:30.760Z,20.20
2017-07-10T22:00:58.297Z,20.20
2017-07-10T22:03:26.719Z,20.20
2017-07-10T22:17:26.478Z,20.10
2017-07-10T22:19:53.998Z,20.10
2017-07-10T22:22:21.525Z,20.10
2017-07-10T22:24:49.842Z,20.00
2017-07-10T22:27:17.374Z,20.00
2017-07-10T22:29:44.902Z,20.00
2017-07-10T22:32:12.446Z,19.90
2017-07-10T22:34:39.981Z,19.90
2017-07-10T22:37:07.514Z,19.80
2017-07-10T22:39:35.202Z,19.80
2017-07-10T22:42:02.723Z,19.80
2017-07-10T22:44:31.036Z,19.70
2017-07-10T22:46:58.598Z,19.70
2017-07-10T22:49:26.124Z,19.80
2017-07-10T22:51:54.432Z,19.70
2017-07-10T22:54:21.996Z,19.80
2017-07-10T22:56:49.523Z,19.70
2017-07-10T22:59:17.139Z,19.70
2017-07-10T23:01:44.687Z,19.70
2017-07-10T23:04:12.206Z,19.70
2017-07-10T23:06:39.746Z,19.70
2017-07-10T23:09:08.071Z,19.70
2017-07-10T23:11:35.730Z,19.60
2017-07-10T23:14:03.391Z,19.70
2017-07-10T23:16:30.927Z,19.70
2017-07-10T23:18:58.522Z,19.70
2017-07-10T23:21:26.076Z,19.70
2017-07-10T23:23:53.734Z,19.70
2017-07-10T23:26:21.294Z,19.60
2017-07-10T23:28:49.163Z,19.60
2017-07-10T23:31:16.720Z,19.70
2017-07-10T23:33:44.252Z,19.60
2017-07-10T23:36:11.949Z,19.60
2017-07-10T23:38:39.509Z,19.60
2017-07-10T23:41:07.033Z,19.60
2017-07-10T23:43:34.621Z,19.60
2017-07-10T23:46:02.284Z,19.60
2017-07-10T23:48:30.437Z,19.70
2017-07-10T23:50:57.967Z,19.70
2017-07-10T23:53:25.506Z,19.70
2017-07-10T23:55:53.027Z,19.70
2017-07-10T23:58:20.594Z,19.70
